Time;durP1;ratioP1;P1;durP2;ratioP2;P2;SDS_P1;SDS_P2;PMS_P1;PMS_P2;Temp;Humidity;BMP_temperature;BMP_pressure;BME280_temperature;BME280_humidity;BME280_pressure;Samples;Min_cycle;Max_cycle;Signal;HPM_P1;HPM_P2
2022/03/30 00:01:08;;;;;;;68.73;18.63;;;5.00;99.90;;;;;;5017086;28;20050;-79
2022/03/30 00:03:34;;;;;;;64.80;18.02;;;5.00;99.90;;;;;;5015575;28;20103;-79
2022/03/30 00:06:00;;;;;;;58.55;16.40;;;5.00;99.90;;;;;;5015702;28;20045;-79
2022/03/30 00:08:26;;;;;;;52.65;16.92;;;4.90;99.90;;;;;;4999211;28;20073;-78
2022/03/30 00:10:52;;;;;;;64.30;17.52;;;4.90;99.90;;;;;;4999336;28;20077;-78
2022/03/30 00:13:18;;;;;;;69.68;19.02;;;4.80;99.90;;;;;;5017270;28;20073;-78
2022/03/30 00:15:44;;;;;;;59.20;17.33;;;4.80;99.90;;;;;;5017130;28;20050;-77
2022/03/30 00:18:10;;;;;;;57.85;16.88;;;4.70;99.90;;;;;;5000814;28;20054;-78
2022/03/30 00:20:36;;;;;;;58.22;16.67;;;4.60;99.90;;;;;;5017285;28;20164;-79
2022/03/30 00:23:02;;;;;;;64.90;18.20;;;4.60;99.90;;;;;;5000179;28;20121;-77
2022/03/30 00:25:27;;;;;;;59.80;16.75;;;4.60;99.90;;;;;;4999378;28;20046;-78
2022/03/30 00:27:53;;;;;;;57.97;16.52;;;4.60;99.90;;;;;;5000266;28;20054;-78
2022/03/30 00:30:21;;;;;;;52.78;16.42;;;4.50;99.90;;;;;;4999409;28;20121;-79
2022/03/30 00:32:47;;;;;;;66.78;19.23;;;4.50;99.90;;;;;;5015549;28;20057;-79
2022/03/30 00:35:13;;;;;;;64.63;16.67;;;4.50;99.90;;;;;;5016215;28;20125;-80
2022/03/30 00:37:41;;;;;;;60.40;16.70;;;4.50;99.90;;;;;;5016653;28;20114;-79
2022/03/30 00:40:09;;;;;;;55.35;17.42;;;4.50;99.90;;;;;;5014713;28;20075;-78
2022/03/30 00:42:35;;;;;;;60.83;16.83;;;4.50;99.90;;;;;;4998404;28;20085;-77
2022/03/30 00:45:21;;;;;;;71.03;18.13;;;4.50;99.90;;;;;;4998478;28;20089;-78
2022/03/30 00:47:48;;;;;;;62.60;16.65;;;4.60;99.90;;;;;;4998402;28;20056;-80
2022/03/30 00:50:17;;;;;;;65.88;17.25;;;4.60;99.90;;;;;;5015777;28;20061;-77
2022/03/30 00:52:45;;;;;;;64.68;16.95;;;4.70;99.90;;;;;;5014820;28;20050;-78
2022/03/30 00:55:13;;;;;;;56.05;17.23;;;4.60;99.90;;;;;;5014593;28;20139;-77
2022/03/30 00:57:39;;;;;;;61.20;17.30;;;4.50;99.90;;;;;;4997844;28;20060;-77
2022/03/30 01:00:08;;;;;;;63.25;16.98;;;4.60;99.90;;;;;;5013841;28;20057;-78
2022/03/30 01:02:37;;;;;;;61.85;16.80;;;4.60;99.90;;;;;;4998586;28;20430;-78
2022/03/30 01:05:04;;;;;;;64.20;17.17;;;4.50;99.90;;;;;;5014256;28;20046;-78
2022/03/30 01:07:30;;;;;;;60.47;17.75;;;4.50;99.90;;;;;;5014159;28;20053;-77
2022/03/30 01:09:56;;;;;;;63.33;18.05;;;4.50;99.90;;;;;;5015595;28;20145;-77
2022/03/30 01:12:22;;;;;;;60.35;17.77;;;4.50;99.90;;;;;;4997974;28;20132;-80
2022/03/30 01:14:48;;;;;;;63.65;17.85;;;4.50;99.90;;;;;;5015104;28;20050;-77
2022/03/30 01:17:14;;;;;;;63.20;17.63;;;4.50;99.90;;;;;;5013695;28;20053;-77
2022/03/30 01:19:40;;;;;;;65.72;19.85;;;4.60;99.90;;;;;;4981455;28;20371;-79
2022/03/30 01:22:07;;;;;;;60.67;16.80;;;4.40;99.90;;;;;;4997865;28;20141;-79
2022/03/30 01:24:33;;;;;;;;;;;4.40;99.90;;;;;;5014639;28;20052;-79
2022/03/30 01:26:59;;;;;;;58.38;16.13;;;4.40;99.90;;;;;;4997669;28;19984;-79
2022/03/30 01:32:25;;;;;;;58.55;18.05;;;4.30;99.90;;;;;;5014925;28;20550;-79
2022/03/30 01:34:51;;;;;;;65.35;17.52;;;4.30;99.90;;;;;;5015040;28;20041;-79
2022/03/30 01:37:17;;;;;;;62.60;17.07;;;4.30;99.90;;;;;;5013535;28;20054;-79
2022/03/30 01:39:43;;;;;;;68.80;17.38;;;4.30;99.90;;;;;;4996939;28;20042;-79
2022/03/30 01:42:10;;;;;;;85.40;20.73;;;4.30;99.90;;;;;;5013826;28;20052;-79
2022/03/30 01:44:37;;;;;;;67.03;17.40;;;4.30;99.90;;;;;;5013425;28;20060;-79
2022/03/30 01:47:04;;;;;;;66.65;18.35;;;4.20;99.90;;;;;;5013486;28;20424;-80
2022/03/30 01:49:29;;;;;;;70.13;17.33;;;4.20;99.90;;;;;;5013176;28;20120;-79
2022/03/30 01:51:57;;;;;;;74.13;19.25;;;4.30;99.90;;;;;;5013495;28;20042;-80
2022/03/30 01:54:25;;;;;;;71.95;18.90;;;4.20;99.90;;;;;;5013285;28;20129;-79
2022/03/30 01:56:52;;;;;;;61.30;17.25;;;4.20;99.90;;;;;;4997842;28;20050;-79
2022/03/30 01:59:19;;;;;;;71.75;19.45;;;4.10;99.90;;;;;;5013617;28;20104;-78
2022/03/30 02:01:45;;;;;;;62.10;18.27;;;4.20;99.90;;;;;;4996955;28;20064;-78
2022/03/30 02:04:11;;;;;;;73.57;19.35;;;4.20;99.90;;;;;;5013034;28;20057;-78
2022/03/30 02:06:37;;;;;;;76.18;20.08;;;4.20;99.90;;;;;;5013095;28;20053;-79
2022/03/30 02:09:07;;;;;;;65.30;18.65;;;4.10;99.90;;;;;;5013309;28;20138;-79
2022/03/30 02:11:33;;;;;;;62.45;17.00;;;4.10;99.90;;;;;;4996712;28;20049;-79
2022/03/30 02:14:00;;;;;;;64.57;17.45;;;4.10;99.90;;;;;;4996434;28;20058;-79
2022/03/30 02:16:26;;;;;;;61.88;16.75;;;4.20;99.90;;;;;;4996837;28;20038;-79
2022/03/30 02:18:53;;;;;;;70.47;18.90;;;4.20;99.90;;;;;;4996811;28;20046;-79
2022/03/30 02:21:19;;;;;;;66.75;17.25;;;4.20;99.90;;;;;;5012702;28;20382;-79
2022/03/30 02:23:46;;;;;;;67.07;18.63;;;4.20;99.90;;;;;;5013587;28;20045;-79
2022/03/30 02:26:15;;;;;;;69.15;18.23;;;4.30;99.90;;;;;;4980197;28;20049;-79
2022/03/30 02:28:51;;;;;;;59.45;17.20;;;4.30;99.90;;;;;;5012444;28;20049;-78
2022/03/30 02:31:20;;;;;;;68.38;18.48;;;4.30;99.90;;;;;;5013015;28;20503;-78
2022/03/30 02:33:47;;;;;;;74.20;18.98;;;4.30;99.90;;;;;;5013545;28;20050;-78
2022/03/30 02:36:14;;;;;;;62.77;17.77;;;4.40;99.90;;;;;;5013693;28;20050;-78
2022/03/30 02:38:43;;;;;;;66.18;18.08;;;4.30;99.90;;;;;;5012598;28;20046;-78
2022/03/30 02:41:10;;;;;;;64.68;18.08;;;4.30;99.90;;;;;;5012794;28;20089;-78
2022/03/30 02:43:37;;;;;;;64.10;17.10;;;4.30;99.90;;;;;;5012494;28;20402;-80
2022/03/30 02:46:04;;;;;;;70.45;18.13;;;4.30;99.90;;;;;;4996575;28;20042;-80
2022/03/30 02:48:32;;;;;;;61.78;17.33;;;4.30;99.90;;;;;;5013686;28;20050;-80
2022/03/30 02:51:02;;;;;;;67.35;17.05;;;4.20;99.90;;;;;;5012413;28;20066;-80
2022/03/30 02:53:28;;;;;;;72.47;18.92;;;4.30;99.90;;;;;;5013271;28;20054;-80
2022/03/30 02:55:54;;;;;;;66.93;18.23;;;4.30;99.90;;;;;;5012286;28;20514;-80
2022/03/30 02:58:20;;;;;;;57.50;17.65;;;4.30;99.90;;;;;;5012348;28;20057;-81
2022/03/30 03:00:46;;;;;;;63.80;17.75;;;4.30;99.90;;;;;;5012441;28;20473;-80
2022/03/30 03:03:12;;;;;;;61.40;17.08;;;4.20;99.90;;;;;;5012986;28;20068;-80
2022/03/30 03:05:38;;;;;;;61.90;18.92;;;4.20;99.90;;;;;;5012498;28;20046;-80
2022/03/30 03:08:06;;;;;;;64.78;19.40;;;4.30;99.90;;;;;;5012994;28;20049;-79
2022/03/30 03:10:34;;;;;;;69.10;17.50;;;4.20;99.90;;;;;;4995504;28;20133;-79
2022/03/30 03:13:04;;;;;;;73.18;18.50;;;4.20;99.90;;;;;;4995373;28;20049;-81
2022/03/30 03:15:31;;;;;;;72.63;19.02;;;4.20;99.90;;;;;;5011780;28;20144;-81
2022/03/30 03:17:57;;;;;;;69.78;17.98;;;4.30;99.90;;;;;;4995650;28;20049;-79
2022/03/30 03:20:27;;;;;;;60.88;17.60;;;4.30;99.90;;;;;;5011825;28;20057;-79
2022/03/30 03:22:54;;;;;;;72.90;18.38;;;4.40;99.90;;;;;;5011377;28;20557;-79
2022/03/30 03:25:20;;;;;;;75.78;18.83;;;4.40;99.90;;;;;;5011482;28;20053;-79
2022/03/30 03:27:47;;;;;;;73.63;18.90;;;4.40;99.90;;;;;;5013225;28;20045;-79
2022/03/30 03:30:14;;;;;;;74.38;19.42;;;4.40;99.90;;;;;;5011915;28;20085;-79
2022/03/30 03:32:40;;;;;;;64.55;18.10;;;4.40;99.90;;;;;;5011136;28;20072;-79
2022/03/30 03:35:09;;;;;;;64.90;18.50;;;4.40;99.90;;;;;;5011521;28;20056;-79
2022/03/30 03:37:36;;;;;;;68.05;19.60;;;4.40;99.90;;;;;;5011959;28;20054;-77
2022/03/30 03:40:03;;;;;;;80.15;21.00;;;4.40;99.90;;;;;;5011605;28;20053;-78
2022/03/30 03:42:29;;;;;;;73.03;19.08;;;4.40;99.90;;;;;;4979487;28;20065;-78
2022/03/30 03:44:54;;;;;;;70.15;18.65;;;4.50;99.90;;;;;;4994811;28;20038;-79
2022/03/30 03:47:20;;;;;;;62.38;17.90;;;4.50;99.90;;;;;;4995357;28;20054;-78
2022/03/30 03:49:46;;;;;;;67.63;17.70;;;4.50;99.90;;;;;;5011450;28;20061;-78
2022/03/30 03:52:12;;;;;;;72.72;20.65;;;4.60;99.90;;;;;;5011427;28;20045;-80
2022/03/30 03:54:37;;;;;;;67.97;19.40;;;4.60;99.90;;;;;;5012875;28;20056;-78
2022/03/30 03:57:03;;;;;;;73.32;18.58;;;4.60;99.90;;;;;;5013323;28;20347;-77
2022/03/30 03:59:29;;;;;;;78.00;18.30;;;4.60;99.90;;;;;;5011343;28;20406;-78
2022/03/30 04:01:55;;;;;;;77.60;20.45;;;4.80;99.90;;;;;;4995034;28;20064;-78
2022/03/30 04:04:21;;;;;;;83.68;19.88;;;4.70;99.90;;;;;;5011269;28;20125;-79
2022/03/30 04:06:46;;;;;;;76.55;19.60;;;4.70;99.90;;;;;;4994994;28;20136;-79
2022/03/30 04:09:12;;;;;;;77.90;18.92;;;4.80;99.90;;;;;;5011525;28;20054;-78
2022/03/30 04:11:38;;;;;;;72.72;18.90;;;4.70;99.90;;;;;;5011710;28;20119;-78
2022/03/30 04:14:03;;;;;;;78.32;20.00;;;4.80;99.90;;;;;;4995055;28;20053;-78
2022/03/30 04:16:29;;;;;;;62.33;19.20;;;4.90;99.90;;;;;;5012663;28;20125;-78
2022/03/30 04:18:55;;;;;;;71.28;18.77;;;4.90;99.90;;;;;;4995066;28;20049;-78
2022/03/30 04:21:21;;;;;;;70.82;19.27;;;5.00;99.90;;;;;;5011262;28;20133;-79
2022/03/30 04:23:47;;;;;;;67.07;18.58;;;5.00;99.90;;;;;;4978724;28;20057;-79
2022/03/30 04:26:13;;;;;;;67.95;18.98;;;5.00;99.90;;;;;;4994928;28;20153;-80
2022/03/30 04:28:40;;;;;;;73.50;19.80;;;5.10;99.90;;;;;;5011103;28;20406;-80
2022/03/30 04:31:10;;;;;;;66.63;18.63;;;5.10;99.90;;;;;;5012272;28;20057;-79
2022/03/30 04:33:37;;;;;;;73.10;20.25;;;5.10;99.90;;;;;;5011012;28;20042;-80
2022/03/30 04:36:03;;;;;;;67.78;18.05;;;5.10;99.90;;;;;;4994908;28;20059;-78
2022/03/30 04:38:30;;;;;;;69.28;18.92;;;5.00;99.90;;;;;;5010916;28;20126;-80
2022/03/30 04:40:56;;;;;;;65.80;19.60;;;5.10;99.90;;;;;;5011121;28;20056;-78
2022/03/30 04:43:21;;;;;;;60.45;16.55;;;5.00;99.90;;;;;;5012226;28;20289;-80
2022/03/30 04:45:47;;;;;;;60.38;18.48;;;5.10;99.90;;;;;;4982092;28;20136;-78
2022/03/30 04:48:13;;;;;;;70.05;19.75;;;5.10;99.90;;;;;;5014723;28;20133;-79
2022/03/30 04:50:39;;;;;;;68.47;18.38;;;5.10;99.90;;;;;;5015285;28;20056;-80
2022/03/30 04:53:05;;;;;;;59.92;17.73;;;5.00;99.90;;;;;;5015652;28;20050;-79
2022/03/30 04:55:31;;;;;;;70.00;18.77;;;5.00;99.90;;;;;;4982888;28;20046;-77
2022/03/30 04:57:57;;;;;;;68.63;18.33;;;5.10;99.90;;;;;;5015750;28;20329;-80
2022/03/30 05:00:23;;;;;;;62.67;17.13;;;5.10;99.90;;;;;;4998352;28;20062;-78
2022/03/30 05:02:49;;;;;;;73.72;20.05;;;5.10;99.90;;;;;;4998374;28;20061;-77
2022/03/30 05:05:14;;;;;;;72.00;19.27;;;5.10;99.90;;;;;;4999542;28;20103;-77
2022/03/30 05:07:40;;;;;;;69.18;19.00;;;5.10;99.90;;;;;;5015897;28;20480;-79
2022/03/30 05:10:09;;;;;;;73.10;21.75;;;5.10;99.90;;;;;;5016938;28;20045;-77
2022/03/30 05:12:35;;;;;;;69.13;19.55;;;5.10;99.90;;;;;;4999047;28;20049;-78
2022/03/30 05:15:01;;;;;;;74.03;18.95;;;5.10;99.90;;;;;;4998009;28;20392;-79
2022/03/30 05:17:27;;;;;;;80.40;22.42;;;5.10;99.90;;;;;;5016110;28;20042;-79
2022/03/30 05:19:52;;;;;;;70.25;20.38;;;5.10;99.90;;;;;;5014412;28;20140;-77
2022/03/30 05:22:18;;;;;;;64.63;17.58;;;5.10;99.90;;;;;;4997888;28;20045;-79
2022/03/30 05:24:44;;;;;;;71.88;20.92;;;5.10;99.90;;;;;;5015338;28;20129;-79
2022/03/30 05:27:11;;;;;;;68.07;17.55;;;5.10;99.90;;;;;;4999169;28;20466;-78
2022/03/30 05:29:37;;;;;;;60.13;16.88;;;5.10;99.90;;;;;;5015323;28;20128;-80
2022/03/30 05:32:04;;;;;;;64.68;16.33;;;5.20;99.90;;;;;;5014775;28;20115;-78
2022/03/30 05:34:30;;;;;;;69.13;19.17;;;5.20;99.90;;;;;;4999170;28;20085;-78
2022/03/30 05:36:58;;;;;;;64.05;17.05;;;5.30;99.90;;;;;;5015538;28;20064;-77
2022/03/30 05:39:24;;;;;;;60.80;15.52;;;5.20;99.90;;;;;;4982795;28;20057;-79
2022/03/30 05:41:50;;;;;;;70.20;17.52;;;5.30;99.90;;;;;;5017422;28;20156;-79
2022/03/30 05:44:16;;;;;;;60.60;16.13;;;5.30;99.90;;;;;;5015436;28;20046;-79
2022/03/30 05:46:41;;;;;;;67.55;17.65;;;5.30;99.90;;;;;;5015898;28;20347;-79
2022/03/30 05:49:07;;;;;;;60.53;15.98;;;5.20;99.90;;;;;;4981760;28;20054;-79
2022/03/30 05:51:33;;;;;;;62.50;16.88;;;5.20;99.90;;;;;;4982205;28;20061;-81
2022/03/30 05:53:59;;;;;;;55.55;15.07;;;5.30;99.90;;;;;;5014753;28;20061;-78
2022/03/30 05:59:09;;;;;;;70.32;18.77;;;5.30;99.90;;;;;;5017099;28;20065;-78
2022/03/30 06:01:35;;;;;;;65.72;15.93;;;5.30;99.90;;;;;;5017488;28;20068;-80
2022/03/30 06:04:02;;;;;;;62.45;17.45;;;5.30;99.90;;;;;;5016742;28;20046;-80
2022/03/30 06:06:28;;;;;;;65.87;17.63;;;5.30;99.90;;;;;;5016533;28;20485;-79
2022/03/30 06:08:54;;;;;;;52.28;14.82;;;5.40;99.90;;;;;;5014891;28;20054;-79
2022/03/30 06:11:19;;;;;;;59.30;15.25;;;5.40;99.90;;;;;;5014347;28;20050;-82
2022/03/30 06:13:45;;;;;;;49.42;14.63;;;5.40;99.90;;;;;;4997327;28;20080;-79
2022/03/30 06:16:14;;;;;;;47.33;12.45;;;5.40;99.90;;;;;;5014606;28;20049;-81
2022/03/30 06:18:40;;;;;;;44.67;11.68;;;5.50;99.90;;;;;;4997176;28;20056;-80
2022/03/30 06:21:06;;;;;;;37.10;10.70;;;5.60;99.90;;;;;;5013858;28;20046;-82
2022/03/30 06:23:35;;;;;;;33.10;10.98;;;5.60;99.90;;;;;;4999023;28;20042;-83
2022/03/30 06:26:02;;;;;;;33.33;9.40;;;5.60;99.90;;;;;;4999997;28;20093;-80
2022/03/30 06:28:29;;;;;;;27.98;8.73;;;5.70;99.90;;;;;;4997123;28;20281;-83
2022/03/30 06:30:56;;;;;;;25.13;8.68;;;5.60;99.90;;;;;;5014235;28;20072;-81
2022/03/30 06:33:25;;;;;;;34.80;11.95;;;5.60;99.90;;;;;;5013405;28;20050;-80
2022/03/30 06:35:51;;;;;;;29.38;8.02;;;5.60;99.90;;;;;;4998161;28;20045;-81
2022/03/30 06:38:17;;;;;;;28.77;8.02;;;5.70;99.90;;;;;;5015292;28;20116;-80
2022/03/30 06:40:47;;;;;;;21.58;7.38;;;5.80;99.90;;;;;;5015139;28;20049;-79
2022/03/30 06:43:16;;;;;;;22.05;10.02;;;5.70;99.90;;;;;;4998151;28;20049;-81
2022/03/30 06:45:43;;;;;;;22.35;6.00;;;5.60;99.90;;;;;;4997386;28;20378;-81
2022/03/30 06:48:10;;;;;;;16.23;5.60;;;5.60;99.90;;;;;;5030561;28;20187;-78
2022/03/30 06:50:35;;;;;;;15.68;5.68;;;5.70;99.90;;;;;;5015333;28;20061;-80
2022/03/30 06:53:02;;;;;;;15.32;5.18;;;5.70;99.90;;;;;;4998003;28;20042;-79
2022/03/30 06:55:29;;;;;;;13.20;4.30;;;5.80;99.90;;;;;;5012530;28;20057;-84
2022/03/30 06:57:54;;;;;;;13.23;4.32;;;5.90;99.90;;;;;;5029049;28;20050;-81
2022/03/30 07:00:20;;;;;;;13.10;4.38;;;5.90;99.90;;;;;;4995754;28;20141;-83
2022/03/30 07:02:46;;;;;;;10.63;4.45;;;5.90;99.90;;;;;;4996290;28;20057;-76
2022/03/30 07:05:11;;;;;;;10.15;3.60;;;6.00;99.90;;;;;;5012798;28;20100;-78
2022/03/30 07:10:23;;;;;;;11.25;3.72;;;6.10;99.90;;;;;;5012278;28;20054;-80
2022/03/30 07:12:50;;;;;;;;;;;6.20;99.90;;;;;;5029181;28;20050;-82
2022/03/30 07:15:21;;;;;;;12.02;3.40;;;6.30;99.90;;;;;;5012117;28;20345;-80
2022/03/30 07:17:54;;;;;;;10.48;4.00;;;6.30;99.90;;;;;;5012720;28;20127;-80
2022/03/30 07:20:23;;;;;;;9.68;3.33;;;6.20;99.90;;;;;;5013050;28;20042;-83
2022/03/30 07:22:50;;;;;;;8.70;3.03;;;6.10;99.90;;;;;;5028658;28;20148;-82
2022/03/30 07:25:20;;;;;;;10.23;3.97;;;6.30;99.90;;;;;;5012099;28;20104;-80
2022/03/30 07:27:49;;;;;;;12.15;3.67;;;6.40;99.90;;;;;;5011668;28;20119;-81
2022/03/30 07:30:15;;;;;;;9.70;3.35;;;6.50;99.90;;;;;;5012355;28;20049;-79
2022/03/30 07:32:45;;;;;;;8.57;3.15;;;6.60;99.90;;;;;;5011941;28;20056;-78
2022/03/30 07:35:13;;;;;;;9.30;4.32;;;6.60;99.90;;;;;;5012854;28;20133;-78
2022/03/30 07:37:39;;;;;;;9.60;3.22;;;6.50;99.90;;;;;;5012010;28;20132;-81
2022/03/30 07:40:07;;;;;;;12.02;3.85;;;6.50;99.90;;;;;;5011592;28;20133;-81
2022/03/30 07:42:33;;;;;;;8.45;3.53;;;6.50;99.90;;;;;;5013028;28;20081;-80
2022/03/30 07:44:59;;;;;;;7.38;2.80;;;6.50;99.90;;;;;;5012516;28;20101;-82
2022/03/30 07:47:29;;;;;;;6.97;2.15;;;6.50;99.90;;;;;;4995621;28;20551;-78
2022/03/30 07:49:55;;;;;;;4.65;1.42;;;6.60;99.90;;;;;;5012694;28;20054;-80
2022/03/30 07:52:21;;;;;;;5.03;1.88;;;6.80;99.90;;;;;;5012963;28;20115;-81
2022/03/30 07:54:48;;;;;;;5.50;1.75;;;6.90;99.90;;;;;;5012030;28;20047;-82
2022/03/30 07:57:15;;;;;;;4.97;1.08;;;6.80;99.90;;;;;;5012649;28;20453;-79
2022/03/30 07:59:41;;;;;;;8.65;1.80;;;6.80;99.90;;;;;;5011203;28;20065;-77
2022/03/30 08:02:08;;;;;;;6.53;1.73;;;7.00;99.90;;;;;;5012480;28;20065;-81
2022/03/30 08:04:34;;;;;;;4.65;1.23;;;7.00;99.90;;;;;;5012517;28;20125;-81
2022/03/30 08:06:59;;;;;;;4.57;1.52;;;7.30;99.90;;;;;;5011770;28;20137;-81
2022/03/30 08:09:25;;;;;;;7.72;2.20;;;7.40;99.90;;;;;;5011585;28;20050;-82
2022/03/30 08:11:52;;;;;;;7.30;2.10;;;;;;;;;;4995468;28;20065;-80
2022/03/30 08:14:19;;;;;;;4.10;1.50;;;7.60;99.90;;;;;;5012407;28;20394;-77
2022/03/30 08:16:45;;;;;;;4.68;1.20;;;7.70;99.90;;;;;;4995659;28;20038;-82
2022/03/30 08:19:10;;;;;;;4.68;1.35;;;7.70;99.90;;;;;;5012164;28;20116;-81
2022/03/30 08:24:22;;;;;;;4.88;1.58;;;7.80;99.90;;;;;;5017215;28;20205;-82
2022/03/30 08:26:48;;;;;;;4.97;1.77;;;7.60;99.90;;;;;;5015644;28;20046;-78
2022/03/30 08:29:14;;;;;;;4.78;1.95;;;7.60;99.90;;;;;;5015370;28;20135;-79
2022/03/30 08:31:40;;;;;;;7.40;1.92;;;7.50;99.90;;;;;;5015614;28;20061;-80
2022/03/30 08:34:06;;;;;;;5.95;1.70;;;7.60;99.90;;;;;;5014610;28;20045;-79
2022/03/30 08:36:31;;;;;;;8.05;2.17;;;7.80;99.90;;;;;;5015191;28;20049;-82
2022/03/30 08:39:05;;;;;;;6.07;2.85;;;7.60;99.90;;;;;;5015078;28;20049;-80
2022/03/30 08:41:31;;;;;;;6.60;3.30;;;7.30;99.90;;;;;;5015144;28;20092;-79
2022/03/30 08:43:59;;;;;;;10.90;3.50;;;7.10;99.90;;;;;;5015365;28;20088;-82
2022/03/30 08:46:25;;;;;;;7.47;2.80;;;7.30;99.90;;;;;;5016298;28;20327;-78
2022/03/30 08:48:51;;;;;;;5.65;2.25;;;7.40;99.90;;;;;;4998922;28;20359;-83
2022/03/30 08:51:21;;;;;;;7.85;2.60;;;7.10;99.90;;;;;;5014915;28;20139;-80
2022/03/30 08:53:49;;;;;;;6.07;2.47;;;7.30;99.90;;;;;;5030810;28;20561;-81
2022/03/30 08:56:14;;;;;;;7.30;2.70;;;7.40;99.90;;;;;;4999956;28;20042;-81
2022/03/30 08:58:41;;;;;;;7.25;2.45;;;7.60;99.90;;;;;;4998710;28;20546;-82
2022/03/30 09:01:14;;;;;;;7.78;2.95;;;7.60;99.90;;;;;;5014656;28;20060;-82
2022/03/30 09:04:12;;;;;;;7.88;2.78;;;7.60;99.90;;;;;;5015163;28;20048;-80
2022/03/30 09:06:47;;;;;;;7.60;3.17;;;7.90;99.90;;;;;;4998107;28;20481;-82
2022/03/30 09:09:15;;;;;;;7.03;2.75;;;8.00;99.90;;;;;;5031098;28;20386;-79
2022/03/30 09:11:53;;;;;;;7.35;3.83;;;7.80;99.90;;;;;;5015624;28;20045;-79
2022/03/30 09:14:21;;;;;;;8.52;2.50;;;7.80;99.90;;;;;;5031622;28;20366;-83
2022/03/30 09:16:48;;;;;;;8.48;2.78;;;;;;;;;;5014916;28;20050;-76
2022/03/30 09:19:15;;;;;;;;;;;8.00;99.90;;;;;;5014679;28;20092;-80
2022/03/30 09:21:42;;;;;;;;;;;8.20;99.90;;;;;;5015983;28;19925;-76
2022/03/30 09:24:08;;;;;;;9.20;3.50;;;7.90;99.90;;;;;;5016242;28;20288;-82
2022/03/30 09:26:35;;;;;;;10.77;3.90;;;8.00;99.90;;;;;;5014462;28;20139;-81
2022/03/30 09:29:02;;;;;;;10.52;3.42;;;8.10;99.90;;;;;;5014287;28;20068;-81
2022/03/30 09:31:30;;;;;;;;;;;8.40;99.90;;;;;;5016263;28;20378;-77
2022/03/30 09:33:59;;;;;;;11.23;3.15;;;8.60;99.90;;;;;;4997261;28;19922;-79
2022/03/30 09:36:27;;;;;;;9.18;3.13;;;8.00;99.90;;;;;;5013704;28;20469;-77
2022/03/30 09:38:53;;;;;;;7.13;2.13;;;8.50;99.90;;;;;;4997841;28;20433;-80
2022/03/30 09:41:19;;;;;;;8.23;2.78;;;8.70;99.90;;;;;;5013916;28;20137;-77
2022/03/30 09:43:45;;;;;;;9.55;2.38;;;8.80;99.90;;;;;;5013675;28;20085;-77
2022/03/30 09:46:12;;;;;;;9.60;2.42;;;8.90;99.90;;;;;;5014041;28;20443;-79
2022/03/30 09:48:49;;;;;;;8.50;1.63;;;9.00;99.90;;;;;;5013932;28;20092;-78
2022/03/30 09:51:21;;;;;;;9.55;2.03;;;9.10;99.90;;;;;;5015047;28;20129;-79
2022/03/30 09:53:47;;;;;;;12.40;2.65;;;8.80;99.90;;;;;;5014698;28;20050;-77
2022/03/30 09:56:17;;;;;;;7.90;2.40;;;8.60;99.90;;;;;;4997306;28;20539;-80
2022/03/30 09:58:44;;;;;;;10.10;3.22;;;9.00;99.90;;;;;;5014688;28;20100;-76
2022/03/30 10:01:22;;;;;;;9.00;2.45;;;8.90;99.90;;;;;;5014678;28;20080;-80
2022/03/30 10:04:02;;;;;;;6.63;2.22;;;9.20;99.90;;;;;;5014673;28;20058;-78
2022/03/30 10:06:31;;;;;;;8.40;2.63;;;9.40;99.90;;;;;;5014534;28;20156;-79
2022/03/30 10:08:58;;;;;;;9.82;3.17;;;9.70;99.90;;;;;;5013521;28;20050;-78
2022/03/30 10:11:27;;;;;;;7.43;3.15;;;9.90;99.90;;;;;;5013332;28;20057;-79
2022/03/30 10:13:56;;;;;;;8.88;3.33;;;9.90;99.90;;;;;;5013610;28;20094;-76
2022/03/30 10:16:23;;;;;;;9.23;3.70;;;9.50;99.90;;;;;;5013009;28;20561;-79
2022/03/30 10:18:51;;;;;;;;;;;9.40;99.90;;;;;;5014662;28;20079;-78
2022/03/30 10:21:46;;;;;;;9.00;3.10;;;9.00;99.90;;;;;;4996613;28;20011;-81
2022/03/30 10:24:31;;;;;;;8.73;2.13;;;9.20;99.90;;;;;;5013993;28;20057;-78
2022/03/30 10:27:02;;;;;;;6.57;1.88;;;8.80;99.90;;;;;;5014061;28;20084;-77
2022/03/30 10:29:31;;;;;;;6.93;1.63;;;8.90;99.90;;;;;;5013836;28;20054;-80
2022/03/30 10:32:24;;;;;;;7.40;1.42;;;8.90;99.90;;;;;;5028848;28;20486;-80
2022/03/30 10:34:53;;;;;;;5.47;1.17;;;9.00;99.90;;;;;;5014384;28;20038;-77
2022/03/30 10:37:30;;;;;;;7.03;0.73;;;8.80;99.90;;;;;;5013976;28;20153;-79
2022/03/30 10:40:05;;;;;;;;;;;9.20;99.90;;;;;;5012973;28;20056;-76
2022/03/30 10:42:46;;;;;;;4.05;0.85;;;9.20;99.90;;;;;;5012162;28;20350;-80
2022/03/30 10:45:29;;;;;;;7.30;1.10;;;9.10;99.90;;;;;;5012726;28;20367;-82
2022/03/30 10:48:14;;;;;;;8.13;1.17;;;9.10;99.90;;;;;;5013194;28;20104;-80
2022/03/30 10:50:55;;;;;;;5.72;1.08;;;8.70;99.90;;;;;;5013093;28;20058;-80
2022/03/30 10:53:35;;;;;;;4.15;0.70;;;8.80;99.90;;;;;;5012672;28;20049;-78
2022/03/30 10:56:24;;;;;;;5.82;0.80;;;9.10;99.90;;;;;;5013374;28;20085;-77
2022/03/30 10:58:55;;;;;;;7.30;1.08;;;9.30;99.90;;;;;;4993289;28;20192;-80
2022/03/30 11:01:35;;;;;;;10.13;1.60;;;9.60;99.90;;;;;;5012852;28;20482;-77
2022/03/30 11:04:10;;;;;;;6.85;0.88;;;9.40;99.90;;;;;;5012668;28;20042;-79
2022/03/30 11:06:47;;;;;;;8.15;1.17;;;9.70;99.90;;;;;;5012918;28;20069;-80
2022/03/30 11:09:19;;;;;;;;;;;10.00;99.90;;;;;;4996709;28;20072;-79
2022/03/30 11:11:59;;;;;;;6.03;1.05;;;10.00;99.90;;;;;;5012617;28;19929;-80
2022/03/30 11:14:37;;;;;;;8.38;0.90;;;10.20;99.90;;;;;;5014305;28;20046;-77
2022/03/30 11:17:04;;;;;;;8.35;1.10;;;10.30;99.90;;;;;;5015735;28;20068;-76
2022/03/30 11:19:54;;;;;;;4.53;1.30;;;9.80;99.90;;;;;;5013387;28;20104;-79
2022/03/30 11:22:28;;;;;;;2.78;0.70;;;9.90;99.90;;;;;;5013815;28;20065;-81
2022/03/30 11:25:17;;;;;;;5.65;1.10;;;10.10;99.90;;;;;;5013444;28;20038;-80
2022/03/30 11:27:45;;;;;;;4.03;1.13;;;9.90;99.90;;;;;;5014476;28;20046;-81
2022/03/30 11:30:17;;;;;;;6.28;1.33;;;9.90;99.90;;;;;;5012884;28;20056;-79
2022/03/30 11:33:19;;;;;;;7.95;1.00;;;9.80;99.90;;;;;;5012026;28;20062;-79
2022/03/30 11:35:48;;;;;;;7.32;1.17;;;9.70;99.90;;;;;;5010586;28;20050;-78
2022/03/30 11:38:21;;;;;;;6.07;1.05;;;9.40;99.90;;;;;;5013038;28;20060;-81
2022/03/30 11:40:49;;;;;;;2.40;0.80;;;9.30;99.90;;;;;;5015209;28;20096;-81
2022/03/30 11:43:19;;;;;;;3.88;0.85;;;9.50;99.90;;;;;;5016235;28;20071;-81
2022/03/30 11:45:46;;;;;;;4.85;1.00;;;9.40;99.90;;;;;;5016842;28;20041;-80
2022/03/30 11:48:12;;;;;;;;;;;9.60;99.90;;;;;;5013950;28;20057;-78
2022/03/30 11:50:46;;;;;;;5.70;1.40;;;9.60;99.90;;;;;;5014082;28;19925;-80
2022/03/30 11:53:32;;;;;;;6.13;1.05;;;10.00;99.90;;;;;;5012713;28;20049;-79
2022/03/30 11:56:09;;;;;;;5.53;1.50;;;10.10;99.90;;;;;;5013292;28;20057;-77
2022/03/30 11:58:37;;;;;;;6.47;1.55;;;9.90;99.90;;;;;;5015427;28;20046;-80
2022/03/30 12:01:13;;;;;;;5.57;1.20;;;10.00;99.90;;;;;;5015842;28;20058;-80
2022/03/30 12:03:40;;;;;;;6.25;1.60;;;10.00;99.90;;;;;;5016924;28;20046;-82
2022/03/30 12:06:08;;;;;;;4.70;1.10;;;9.50;99.90;;;;;;5017298;28;20053;-79
2022/03/30 12:09:01;;;;;;;7.85;1.20;;;9.50;99.90;;;;;;5014330;28;20508;-79
2022/03/30 12:11:29;;;;;;;4.78;1.25;;;9.30;99.90;;;;;;5012069;28;20050;-79
2022/03/30 12:13:57;;;;;;;4.13;1.10;;;9.10;99.90;;;;;;5015962;28;20500;-78
2022/03/30 12:16:24;;;;;;;5.68;1.13;;;9.40;99.90;;;;;;5016060;28;20042;-77
2022/03/30 12:18:53;;;;;;;5.65;1.10;;;8.90;99.90;;;;;;5014683;28;20050;-80
2022/03/30 12:21:20;;;;;;;3.75;0.90;;;8.90;99.90;;;;;;5013349;28;20050;-79
2022/03/30 12:23:49;;;;;;;;;;;8.90;99.90;;;;;;5014615;28;20053;-81
2022/03/30 12:26:18;;;;;;;5.03;1.30;;;8.80;99.90;;;;;;4996064;28;20016;-78
2022/03/30 12:28:44;;;;;;;9.23;1.70;;;8.70;99.90;;;;;;5014037;28;20042;-80
2022/03/30 12:31:10;;;;;;;2.72;0.90;;;8.90;99.90;;;;;;4995657;28;20470;-80
2022/03/30 12:33:47;;;;;;;8.02;1.13;;;9.30;99.90;;;;;;5012260;28;20096;-77
2022/03/30 12:36:18;;;;;;;7.05;1.02;;;9.40;99.90;;;;;;5011967;28;20058;-80
2022/03/30 12:38:45;;;;;;;7.82;1.45;;;9.00;99.90;;;;;;5012675;28;20471;-80
2022/03/30 12:41:21;;;;;;;4.30;0.95;;;9.20;99.90;;;;;;5012847;28;20085;-78
2022/03/30 12:43:59;;;;;;;7.40;1.52;;;9.30;99.90;;;;;;5014957;28;20103;-78
2022/03/30 12:46:29;;;;;;;2.90;0.95;;;9.60;99.90;;;;;;5016060;28;20045;-81
2022/03/30 12:49:06;;;;;;;3.08;1.00;;;9.40;99.90;;;;;;5015669;28;20449;-78
2022/03/30 12:51:36;;;;;;;5.30;1.10;;;9.30;99.90;;;;;;5015429;28;20096;-81
2022/03/30 12:54:03;;;;;;;;;;;9.70;99.90;;;;;;5016431;28;20503;-82
2022/03/30 12:56:29;;;;;;;3.95;1.13;;;9.90;99.90;;;;;;4999567;28;19921;-79
2022/03/30 12:58:56;;;;;;;3.25;1.00;;;9.60;99.90;;;;;;5013900;28;20049;-81
2022/03/30 13:01:28;;;;;;;;;;;9.20;99.90;;;;;;4999763;28;20143;-78
2022/03/30 13:03:55;;;;;;;4.22;1.52;;;9.50;99.90;;;;;;4997143;28;19927;-80
2022/03/30 13:06:22;;;;;;;6.75;1.20;;;9.80;99.90;;;;;;5000159;28;20060;-80
2022/03/30 13:09:07;;;;;;;5.85;1.20;;;9.70;99.90;;;;;;5015864;28;20141;-77